(°C)
22°
21°
20°
20°
19°
19°
18°
(°C)
21°
20°
19°
19°
19°
18°
18°
CСИ
CСИ
CСИ
CСИ
С
С
С
(km/h)
19-27
18-25
16-23
14-22
12-21
11-19
10-18
(mm)
0
0
0
0
0
0
0
(%)
0
0
0
0
0
0
0

Издигане на слънцето

/ -4.5°
sun-icon
UV 5
07:26
18:55
Нарастваща полу-луна (144°)
17:38
04:36

METAR за Орландо (KORL)

Час Условия Температура/
Точка на оросяване
Вятър Видимост Времето Облаци Налягане Промяна Сурови
VFR 23.3°C / 15°C 40º 10kt >10km - Clear 1016 - KORL 172253Z 04010KT 10SM CLR 23/15 A3002 RMK AO2 SLP169 T02330150
VFR 25.6°C / 15°C 50º 11kt >10km - Clear 1016 - KORL 172153Z 05011KT 10SM CLR 26/15 A3000 RMK AO2 SLP163 T02560150
VFR 26.7°C / 15.6°C 50º 10kt >10km - Clear 1015 - KORL 172053Z 05010KT 10SM CLR 27/16 A2999 RMK AO2 SLP157 T02670156 55005
VFR 27.8°C / 16.7°C 60º 11kt >10km - Clear 1015 - KORL 171953Z 06011KT 10SM CLR 28/17 A2998 RMK AO2 SLP153 T02780167
VFR 28.3°C / 16.7°C 20º 8kt >10km - Few Clouds 4300ft 1015 - KORL 171853Z 02008KT 10SM FEW043 28/17 A2998 RMK AO2 SLP155 T02830167
VFR 27.8°C / 17.8°C 40º 7kt >10km - Few Clouds 3800ft 1016 - KORL 171753Z 04007KT 10SM FEW038 28/18 A3000 RMK AO2 SLP161 T02780178 10278 20200 58012
VFR 26.7°C / 16.7°C 30º 9kt >10km - Clear 1016 - KORL 171653Z 03009KT 10SM CLR 27/17 A3002 RMK AO2 SLP169 T02670167
VFR 25°C / 16.7°C 30º 7kt >10km - Few Clouds 3500ft 1017 - KORL 171553Z 03007KT 10SM FEW035 25/17 A3004 RMK AO2 SLP174 T02500167
VFR 22.8°C / 15°C 350º 5kt >10km - Overcast 3600ft 1017 - KORL 171453Z 35005KT 10SM OVC036 23/15 A3004 RMK AO2 SLP174 T02280150 50010
VFR 21.1°C / 13.3°C 340º 8kt >10km - Few Clouds 4700ft
Broken Clouds 6000ft
1017 - KORL 171353Z 34008KT 10SM FEW047 BKN060 21/13 A3004 RMK AO2 SLP175 T02110133
VFR 20.6°C / 12.8°C 360º 8kt >10km - Broken Clouds 5500ft 1017 - KORL 171253Z 36008KT 10SM BKN055 21/13 A3003 RMK AO2 SLP171 T02060128
VFR 20.6°C / 13.3°C 10º 8kt >10km - Scattered Clouds 3400ft 1016 - KORL 171153Z 01008KT 10SM SCT034 21/13 A3000 RMK AO2 SLP163 T02060133 10256 20206 51017
VFR 21.1°C / 13.3°C 360º 11kt >10km - Few Clouds 3700ft
Broken Clouds 7000ft
Overcast 8000ft
1015 - KORL 171053Z AUTO 36011KT 10SM FEW037 BKN070 OVC080 21/13 A2999 RMK AO2 SLP157 T02110133
VFR 21.7°C / 13.9°C 20º 10kt >10km - Scattered Clouds 2600ft
Broken Clouds 3700ft
Overcast 8000ft
- KORL 171039Z AUTO 02010KT 10SM SCT026 BKN037 OVC080 22/14 A2999 RMK AO2 T02170139
MVFR 22.2°C / 13.9°C 360º 14kt Gust 18kt >10km - Overcast 2400ft 1015 - KORL 170953Z AUTO 36014G18KT 10SM OVC024 22/14 A2997 RMK AO2 SLP151 T02220139
MVFR 23.9°C / 19.4°C 20º 11kt >10km - Overcast 1700ft 1014 - KORL 170853Z AUTO 02011KT 10SM OVC017 24/19 A2995 RMK AO2 SLP145 T02390194 53002
MVFR 25°C / 21.7°C 360º 9kt >10km - Few Clouds 1700ft
Overcast 2200ft
1014 - KORL 170753Z AUTO 36009KT 10SM FEW017 OVC022 25/22 A2994 RMK AO2 SLP140 T02500217
MVFR 25.6°C / 23.3°C 320º 5kt >10km - Broken Clouds 2000ft 1014 - KORL 170653Z AUTO 32005KT 10SM BKN020 26/23 A2994 RMK AO2 SLP141 T02560233
VFR 25°C / 22.8°C variable 0kt >10km - Few Clouds 5500ft 1014 - KORL 170553Z AUTO 00000KT 10SM FEW055 25/23 A2995 RMK AO2 SLP143 T02500228 10278 20250 58006
VFR 25.6°C / 22.8°C variable 0kt >10km - Scattered Clouds 2600ft
Scattered Clouds 3200ft
Broken Clouds 5500ft
- KORL 170536Z AUTO 00000KT 10SM SCT026 SCT032 BKN055 26/23 A2995 RMK AO2 T02560228
MVFR 25.6°C / 22.8°C 290º 3kt >10km - Broken Clouds 2500ft - KORL 170510Z AUTO 29003KT 10SM BKN025 26/23 A2996 RMK AO2 T02560228
VFR 25.6°C / 22.8°C 290º 3kt >10km - Few Clouds 2300ft
Few Clouds 10000ft
1014 - KORL 170453Z AUTO 29003KT 10SM FEW023 FEW100 26/23 A2996 RMK AO2 SLP148 T02560228 403110217
VFR 26.1°C / 22.2°C 280º 4kt >10km - Clear 1014 - KORL 170353Z AUTO 28004KT 10SM CLR 26/22 A2996 RMK AO2 SLP148 T02610222
VFR 26.7°C / 20.6°C variable 0kt >10km - Broken Clouds 5500ft 1014 - KORL 170253Z AUTO 00000KT 10SM BKN055 27/21 A2997 RMK AO2 SLP149 T02670206 51016

VFR

23.3°C / 15°C

[Още]
Вятър 40º 10kt
Видимост >10km
Времето -
Облаци Clear
Налягане 1016
Промяна -
Сурови KORL 172253Z 04010KT 10SM CLR 23/15 A3002 RMK AO2 SLP169 T02330150

VFR

25.6°C / 15°C

[Още]
Вятър 50º 11kt
Видимост >10km
Времето -
Облаци Clear
Налягане 1016
Промяна -
Сурови KORL 172153Z 05011KT 10SM CLR 26/15 A3000 RMK AO2 SLP163 T02560150

VFR

26.7°C / 15.6°C

[Още]
Вятър 50º 10kt
Видимост >10km
Времето -
Облаци Clear
Налягане 1015
Промяна -
Сурови KORL 172053Z 05010KT 10SM CLR 27/16 A2999 RMK AO2 SLP157 T02670156 55005

VFR

27.8°C / 16.7°C

[Още]
Вятър 60º 11kt
Видимост >10km
Времето -
Облаци Clear
Налягане 1015
Промяна -
Сурови KORL 171953Z 06011KT 10SM CLR 28/17 A2998 RMK AO2 SLP153 T02780167

VFR

28.3°C / 16.7°C

[Още]
Вятър 20º 8kt
Видимост >10km
Времето -
Облаци Few Clouds 4300ft
Налягане 1015
Промяна -
Сурови KORL 171853Z 02008KT 10SM FEW043 28/17 A2998 RMK AO2 SLP155 T02830167

VFR

27.8°C / 17.8°C

[Още]
Вятър 40º 7kt
Видимост >10km
Времето -
Облаци Few Clouds 3800ft
Налягане 1016
Промяна -
Сурови KORL 171753Z 04007KT 10SM FEW038 28/18 A3000 RMK AO2 SLP161 T02780178 10278 20200 58012

VFR

26.7°C / 16.7°C

[Още]
Вятър 30º 9kt
Видимост >10km
Времето -
Облаци Clear
Налягане 1016
Промяна -
Сурови KORL 171653Z 03009KT 10SM CLR 27/17 A3002 RMK AO2 SLP169 T02670167

VFR

25°C / 16.7°C

[Още]
Вятър 30º 7kt
Видимост >10km
Времето -
Облаци Few Clouds 3500ft
Налягане 1017
Промяна -
Сурови KORL 171553Z 03007KT 10SM FEW035 25/17 A3004 RMK AO2 SLP174 T02500167

VFR

22.8°C / 15°C

[Още]
Вятър 350º 5kt
Видимост >10km
Времето -
Облаци Overcast 3600ft
Налягане 1017
Промяна -
Сурови KORL 171453Z 35005KT 10SM OVC036 23/15 A3004 RMK AO2 SLP174 T02280150 50010

VFR

21.1°C / 13.3°C

[Още]
Вятър 340º 8kt
Видимост >10km
Времето -
Облаци Few Clouds 4700ft
Broken Clouds 6000ft
Налягане 1017
Промяна -
Сурови KORL 171353Z 34008KT 10SM FEW047 BKN060 21/13 A3004 RMK AO2 SLP175 T02110133

VFR

20.6°C / 12.8°C

[Още]
Вятър 360º 8kt
Видимост >10km
Времето -
Облаци Broken Clouds 5500ft
Налягане 1017
Промяна -
Сурови KORL 171253Z 36008KT 10SM BKN055 21/13 A3003 RMK AO2 SLP171 T02060128

VFR

20.6°C / 13.3°C

[Още]
Вятър 10º 8kt
Видимост >10km
Времето -
Облаци Scattered Clouds 3400ft
Налягане 1016
Промяна -
Сурови KORL 171153Z 01008KT 10SM SCT034 21/13 A3000 RMK AO2 SLP163 T02060133 10256 20206 51017

VFR

21.1°C / 13.3°C

[Още]
Вятър 360º 11kt
Видимост >10km
Времето -
Облаци Few Clouds 3700ft
Broken Clouds 7000ft
Overcast 8000ft
Налягане 1015
Промяна -
Сурови KORL 171053Z AUTO 36011KT 10SM FEW037 BKN070 OVC080 21/13 A2999 RMK AO2 SLP157 T02110133

VFR

21.7°C / 13.9°C

[Още]
Вятър 20º 10kt
Видимост >10km
Времето -
Облаци Scattered Clouds 2600ft
Broken Clouds 3700ft
Overcast 8000ft
Налягане
Промяна -
Сурови KORL 171039Z AUTO 02010KT 10SM SCT026 BKN037 OVC080 22/14 A2999 RMK AO2 T02170139

MVFR

22.2°C / 13.9°C

[Още]
Вятър 360º 14kt Gust 18kt
Видимост >10km
Времето -
Облаци Overcast 2400ft
Налягане 1015
Промяна -
Сурови KORL 170953Z AUTO 36014G18KT 10SM OVC024 22/14 A2997 RMK AO2 SLP151 T02220139

MVFR

23.9°C / 19.4°C

[Още]
Вятър 20º 11kt
Видимост >10km
Времето -
Облаци Overcast 1700ft
Налягане 1014
Промяна -
Сурови KORL 170853Z AUTO 02011KT 10SM OVC017 24/19 A2995 RMK AO2 SLP145 T02390194 53002

MVFR

25°C / 21.7°C

[Още]
Вятър 360º 9kt
Видимост >10km
Времето -
Облаци Few Clouds 1700ft
Overcast 2200ft
Налягане 1014
Промяна -
Сурови KORL 170753Z AUTO 36009KT 10SM FEW017 OVC022 25/22 A2994 RMK AO2 SLP140 T02500217

MVFR

25.6°C / 23.3°C

[Още]
Вятър 320º 5kt
Видимост >10km
Времето -
Облаци Broken Clouds 2000ft
Налягане 1014
Промяна -
Сурови KORL 170653Z AUTO 32005KT 10SM BKN020 26/23 A2994 RMK AO2 SLP141 T02560233

VFR

25°C / 22.8°C

[Още]
Вятър variable 0kt
Видимост >10km
Времето -
Облаци Few Clouds 5500ft
Налягане 1014
Промяна -
Сурови KORL 170553Z AUTO 00000KT 10SM FEW055 25/23 A2995 RMK AO2 SLP143 T02500228 10278 20250 58006

VFR

25.6°C / 22.8°C

[Още]
Вятър variable 0kt
Видимост >10km
Времето -
Облаци Scattered Clouds 2600ft
Scattered Clouds 3200ft
Broken Clouds 5500ft
Налягане
Промяна -
Сурови KORL 170536Z AUTO 00000KT 10SM SCT026 SCT032 BKN055 26/23 A2995 RMK AO2 T02560228

MVFR

25.6°C / 22.8°C

[Още]
Вятър 290º 3kt
Видимост >10km
Времето -
Облаци Broken Clouds 2500ft
Налягане
Промяна -
Сурови KORL 170510Z AUTO 29003KT 10SM BKN025 26/23 A2996 RMK AO2 T02560228

VFR

25.6°C / 22.8°C

[Още]
Вятър 290º 3kt
Видимост >10km
Времето -
Облаци Few Clouds 2300ft
Few Clouds 10000ft
Налягане 1014
Промяна -
Сурови KORL 170453Z AUTO 29003KT 10SM FEW023 FEW100 26/23 A2996 RMK AO2 SLP148 T02560228 403110217

VFR

26.1°C / 22.2°C

[Още]
Вятър 280º 4kt
Видимост >10km
Времето -
Облаци Clear
Налягане 1014
Промяна -
Сурови KORL 170353Z AUTO 28004KT 10SM CLR 26/22 A2996 RMK AO2 SLP148 T02610222

VFR

26.7°C / 20.6°C

[Още]
Вятър variable 0kt
Видимост >10km
Времето -
Облаци Broken Clouds 5500ft
Налягане 1014
Промяна -
Сурови KORL 170253Z AUTO 00000KT 10SM BKN055 27/21 A2997 RMK AO2 SLP149 T02670206 51016

Актуални сателитни изображения за Орландо, Съединени щати

Маркерът за локация е поставен върху Орландо. [Още]

Сателитното изображение в реално време съчетава видимата светлина през деня с инфрачервеното лъчение през нощта. През нощта изображението не е тъмно, тъй като инфрачервеното лъчение може да открива температурни разлики. За съжаление ниските облаци и мъглата са трудни за разграничаване от температурите на земята и затова могат да бъдат почти невидими през нощта. Сателитните изображения на Meteosat за Европа се актуализират в реално време на всеки 5 минути. Изображенията GOES-16/GOES-17 (Северна и Южна Америка) и Химавари (Азия) се актуализират на всеки 10 минути.

Радар и валежи в момента за Орландо

Капчица
Лек
Умерен
Тежък
Много тежък
Аве

Маркерът за локация обозначава Орландо. Анимацията показва Радара за валежи за последния час, както и прогноза за 1h. Дъждът или лекият сняг може да са невидими за радара. Интензивността на валежите е обозначена с цветни кодове, вариращи от светлосиньо до оранжево.